Time;durP1;ratioP1;P1;durP2;ratioP2;P2;SDS_P1;SDS_P2;PMS_P1;PMS_P2;Temp;Humidity;BMP_temperature;BMP_pressure;BME280_temperature;BME280_humidity;BME280_pressure;Samples;Min_cycle;Max_cycle;Signal;HPM_P1;HPM_P2
2021/04/11 00:02:52;;;;;;;64.50;33.97;;;;;;;5.65;77.42;99977.73;232483;1174;115407;-67
2021/04/11 00:07:58;;;;;;;66.13;35.28;;;;;;;5.58;78.39;99974.23;233212;1174;115356;-69
2021/04/11 00:13:08;;;;;;;78.08;40.63;;;;;;;5.52;77.79;99982.95;232539;1174;115970;-71
2021/04/11 00:18:12;;;;;;;79.63;38.83;;;;;;;5.53;77.84;99984.58;232518;1174;115724;-68
2021/04/11 00:23:18;;;;;;;82.30;39.65;;;;;;;5.42;78.45;99982.51;232622;1174;115946;-68
2021/04/11 00:28:22;;;;;;;68.93;34.43;;;;;;;5.39;78.97;99982.89;232639;1174;115045;-68
2021/04/11 00:33:31;;;;;;;71.90;33.50;;;;;;;5.23;78.86;99975.27;233582;1167;114694;-68
2021/04/11 00:38:36;;;;;;;79.00;39.98;;;;;;;5.15;79.05;99988.64;233745;1171;216550;-68
2021/04/11 00:43:40;;;;;;;65.87;33.70;;;;;;;5.17;79.85;99981.34;232848;1174;116072;-68
2021/04/11 00:48:46;;;;;;;69.87;36.47;;;;;;;5.13;79.20;99986.20;232994;1174;115281;-68
2021/04/11 00:53:49;;;;;;;66.65;35.80;;;;;;;5.07;79.38;99984.32;232411;1174;115254;-68
2021/04/11 00:58:55;;;;;;;70.23;36.77;;;;;;;5.00;79.84;99986.91;235136;1174;114594;-69
2021/04/11 01:03:59;;;;;;;83.55;43.80;;;;;;;4.98;79.86;99975.72;235030;1174;115282;-68
2021/04/11 01:09:17;;;;;;;66.80;38.10;;;;;;;4.86;79.13;99971.98;235053;1174;115032;-68
2021/04/11 01:14:22;;;;;;;54.10;31.20;;;;;;;4.69;79.75;99966.15;233382;1174;114974;-69
2021/04/11 01:19:32;;;;;;;63.68;37.33;;;;;;;4.57;80.39;99967.70;234968;1174;115451;-69
2021/04/11 01:24:53;;;;;;;76.50;41.73;;;;;;;4.60;80.07;99961.19;233721;1174;114872;-68
2021/04/11 01:29:57;;;;;;;70.30;40.08;;;;;;;4.66;80.44;99955.97;232422;1174;114786;-68
2021/04/11 01:35:04;;;;;;;75.27;40.60;;;;;;;4.61;79.51;99954.91;232378;1174;116260;-67
2021/04/11 01:40:12;;;;;;;67.75;39.88;;;;;;;4.51;79.74;99951.79;232887;1174;115644;-67
2021/04/11 01:45:16;;;;;;;53.50;33.45;;;;;;;4.29;79.75;99945.69;233408;1174;115271;-67
2021/04/11 01:50:20;;;;;;;66.25;38.15;;;;;;;4.14;81.01;99939.67;232431;1174;114606;-66
2021/04/11 01:55:26;;;;;;;77.28;44.48;;;;;;;4.04;81.34;99934.69;234516;1174;114479;-67
2021/04/11 02:00:35;;;;;;;63.43;40.43;;;;;;;3.91;81.05;99934.57;232567;1175;116573;-67
2021/04/11 02:05:41;;;;;;;63.05;36.95;;;;;;;3.79;81.11;99930.77;232875;1174;115526;-66
2021/04/11 02:10:49;;;;;;;66.73;43.47;;;;;;;3.72;82.07;99928.05;233506;1174;116107;-68
2021/04/11 02:15:57;;;;;;;75.73;45.53;;;;;;;3.79;81.76;99930.77;233357;1174;115580;-67
2021/04/11 02:21:07;;;;;;;54.47;33.27;;;;;;;3.59;81.29;99927.92;233371;1174;115093;-67
2021/04/11 02:26:12;;;;;;;53.93;32.53;;;;;;;3.45;83.02;99924.30;233365;1174;115841;-68
2021/04/11 02:31:19;;;;;;;85.78;49.08;;;;;;;3.33;83.40;99913.42;233073;1174;115275;-67
2021/04/11 02:36:28;;;;;;;87.23;45.50;;;;;;;3.26;82.97;99909.06;232590;1168;115552;-66
2021/04/11 02:41:33;;;;;;;90.77;55.03;;;;;;;3.27;82.47;99905.43;232839;1174;116045;-65
2021/04/11 02:46:39;;;;;;;97.60;52.18;;;;;;;3.24;83.07;99911.06;233544;1174;115894;-67
2021/04/11 02:51:45;;;;;;;97.83;52.57;;;;;;;3.10;82.48;99899.52;232657;1174;115315;-65
2021/04/11 02:56:49;;;;;;;55.10;36.23;;;;;;;2.95;83.20;99902.17;234324;1169;115104;-65
2021/04/11 03:01:58;;;;;;;59.45;36.60;;;;;;;2.87;84.59;99911.97;235113;1174;114886;-66
2021/04/11 03:07:08;;;;;;;117.15;64.65;;;;;;;2.86;83.57;99908.52;234594;1167;114524;-67
2021/04/11 03:12:12;;;;;;;104.15;52.05;;;;;;;2.89;83.18;99908.16;235078;1174;115296;-67
2021/04/11 03:17:21;;;;;;;85.50;47.80;;;;;;;2.90;83.08;99903.70;235102;1173;115297;-66
2021/04/11 03:22:28;;;;;;;92.78;50.40;;;;;;;2.92;83.38;99904.34;234547;1171;114996;-65
2021/04/11 03:27:48;;;;;;;85.30;49.00;;;;;;;2.99;83.41;99913.98;235025;1174;115403;-67
2021/04/11 03:32:58;;;;;;;86.58;51.35;;;;;;;3.01;81.33;99911.17;233135;1174;115228;-66
2021/04/11 03:38:04;;;;;;;63.40;37.70;;;;;;;2.88;83.89;99917.05;234333;1174;114844;-66
2021/04/11 03:43:14;;;;;;;38.73;24.23;;;;;;;2.83;84.20;99924.67;233333;1174;115132;-65
2021/04/11 03:48:40;;;;;;;42.13;24.98;;;;;;;2.81;83.85;99937.19;233616;1175;115104;-65
2021/04/11 03:53:56;;;;;;;56.07;32.97;;;;;;;2.79;84.45;99941.81;233839;1174;116285;-65
2021/04/11 03:59:03;;;;;;;56.13;32.78;;;;;;;2.91;84.43;99929.86;233220;1176;117022;-66
2021/04/11 04:04:12;;;;;;;58.57;32.17;;;;;;;3.06;82.91;99934.33;233567;1174;115365;-66
2021/04/11 04:09:16;;;;;;;50.60;29.85;;;;;;;3.13;83.13;99940.48;232949;1173;115595;-64
2021/04/11 04:14:56;;;;;;;45.80;29.65;;;;;;;3.23;82.65;99935.77;233546;1173;114696;-65
2021/04/11 04:20:14;;;;;;;47.03;29.43;;;;;;;3.44;81.78;99938.47;232229;1174;114783;-66
2021/04/11 04:25:21;;;;;;;53.38;31.60;;;;;;;3.65;82.40;99943.83;232624;1174;119284;-65
2021/04/11 04:30:53;;;;;;;53.20;32.63;;;;;;;3.94;80.90;99939.48;233485;1174;115902;-65
2021/04/11 04:36:04;;;;;;;;;;;;;;;4.25;79.80;99936.54;232642;1174;115669;-64
2021/04/11 04:41:27;;;;;;;47.55;29.48;;;;;;;4.51;78.94;99935.95;235295;1174;103193;-65
2021/04/11 04:46:44;;;;;;;34.28;21.95;;;;;;;4.79;79.41;99928.04;232610;1167;116656;-65
2021/04/11 04:51:53;;;;;;;54.10;34.90;;;;;;;5.10;78.26;99935.56;232759;1174;115823;-63
2021/04/11 04:57:08;;;;;;;53.20;33.30;;;;;;;5.44;77.00;99934.73;233339;1175;116157;-64
2021/04/11 05:02:14;;;;;;;51.20;31.80;;;;;;;5.73;76.90;99927.31;232722;1174;115683;-65
2021/04/11 05:07:22;;;;;;;34.75;21.83;;;;;;;5.94;77.32;99926.38;234989;1170;114974;-65
2021/04/11 05:12:49;;;;;;;48.23;30.03;;;;;;;6.17;75.15;99923.36;235056;1174;116725;-65
2021/04/11 05:18:02;;;;;;;55.10;32.68;;;;;;;6.55;73.67;99910.36;235217;1174;115077;-65
2021/04/11 05:23:25;;;;;;;45.35;28.63;;;;;;;7.14;72.93;99908.64;235180;1174;114961;-65
2021/04/11 05:28:32;;;;;;;36.20;24.80;;;;;;;7.33;71.92;99905.14;235121;1174;115435;-65
2021/04/11 05:33:37;;;;;;;47.80;27.88;;;;;;;7.51;70.40;99905.27;235210;1174;115083;-66
2021/04/11 05:39:01;;;;;;;51.20;31.50;;;;;;;7.70;70.30;99904.34;234970;1174;115477;-68
2021/04/11 05:44:15;;;;;;;50.93;31.05;;;;;;;8.00;69.84;99903.77;233745;1174;116839;-66
2021/04/11 05:49:45;;;;;;;35.87;24.40;;;;;;;8.23;69.11;99912.02;233225;1174;116237;-67
2021/04/11 05:54:54;;;;;;;43.98;24.35;;;;;;;8.46;67.75;99895.52;233256;1174;115155;-67
2021/04/11 06:00:14;;;;;;;38.50;23.57;;;;;;;8.77;66.82;99891.98;232680;1174;117146;-68
2021/04/11 06:05:33;;;;;;;41.20;25.28;;;;;;;9.11;66.17;99894.09;233279;1174;116312;-67
2021/04/11 06:10:44;;;;;;;31.67;21.57;;;;;;;9.45;65.01;99903.31;232397;1174;127720;-66
2021/04/11 06:15:59;;;;;;;31.43;21.65;;;;;;;9.74;62.23;99900.91;233193;1174;115283;-70
2021/04/11 06:21:11;;;;;;;38.53;20.57;;;;;;;10.06;62.62;99896.16;233340;1174;115638;-65
2021/04/11 06:26:35;;;;;;;25.60;19.13;;;;;;;10.35;62.15;99892.67;232417;1174;116511;-64
2021/04/11 06:31:47;;;;;;;39.28;23.38;;;;;;;10.69;61.02;99898.27;233341;1174;115083;-64
2021/04/11 06:36:56;;;;;;;30.20;20.30;;;;;;;10.91;59.36;99896.63;233082;1174;115264;-68
2021/04/11 06:42:27;;;;;;;27.10;18.90;;;;;;;11.12;58.27;99895.22;233384;1174;116410;-65
2021/04/11 06:48:09;;;;;;;33.33;19.73;;;;;;;11.37;59.32;99897.59;233132;1174;116486;-65
2021/04/11 06:53:47;;;;;;;33.15;19.00;;;;;;;11.93;56.00;99898.70;232688;1174;116010;-65
2021/04/11 06:58:59;;;;;;;28.25;16.75;;;;;;;12.32;54.95;99888.98;233410;1175;116326;-68
2021/04/11 07:04:29;;;;;;;27.10;19.03;;;;;;;12.62;54.15;99894.00;232886;1174;116120;-68
2021/04/11 07:09:44;;;;;;;;;;;;;;;12.84;53.15;99888.73;233273;1174;115967;-67
2021/04/11 07:15:15;;;;;;;32.65;21.30;;;;;;;13.40;53.54;99888.45;234945;1174;102197;-66
2021/04/11 07:20:40;;;;;;;27.60;18.13;;;;;;;14.75;49.18;99872.30;234191;1174;116031;-65
2021/04/11 07:25:45;;;;;;;24.80;17.28;;;;;;;16.21;47.69;99873.09;232461;1174;115258;-67
2021/04/11 07:31:05;;;;;;;20.67;13.57;;;;;;;17.20;42.39;99872.45;234830;1174;115421;-65
2021/04/11 07:36:28;;;;;;;24.40;15.90;;;;;;;17.86;42.56;99865.97;235034;1174;116675;-67
2021/04/11 07:42:00;;;;;;;19.48;12.95;;;;;;;18.11;40.32;99865.80;233868;1174;115864;-66
2021/04/11 07:47:08;;;;;;;19.27;13.27;;;;;;;18.46;40.49;99865.52;234447;1174;117917;-68
2021/04/11 07:52:18;;;;;;;19.33;11.18;;;;;;;18.51;38.53;99859.27;234229;1174;116567;-68
2021/04/11 07:57:58;;;;;;;21.40;13.47;;;;;;;18.58;38.65;99851.65;233523;1174;116089;-70
2021/04/11 08:03:33;;;;;;;14.35;8.50;;;;;;;18.25;36.15;99852.48;233639;1174;116324;-68
2021/04/11 08:08:46;;;;;;;16.07;10.77;;;;;;;18.24;39.82;99840.88;232420;1174;116418;-69
2021/04/11 08:13:52;;;;;;;12.38;10.03;;;;;;;17.95;40.18;99840.03;233734;1174;115445;-70
2021/04/11 08:19:16;;;;;;;16.90;9.93;;;;;;;17.94;39.95;99833.83;232517;1174;115177;-70
2021/04/11 08:24:35;;;;;;;16.45;11.05;;;;;;;18.13;37.84;99833.95;232870;1174;115223;-72
2021/04/11 08:29:41;;;;;;;12.65;9.33;;;;;;;18.27;38.30;99824.13;232540;1174;116518;-69
2021/04/11 08:35:16;;;;;;;13.93;8.63;;;;;;;18.45;34.96;99820.71;232412;1176;115656;-67
2021/04/11 08:40:49;;;;;;;13.10;8.00;;;;;;;18.82;34.75;99803.09;232962;1174;115572;-68
2021/04/11 08:46:26;;;;;;;10.35;7.73;;;;;;;19.08;32.26;99807.10;233713;1171;119072;-69
2021/04/11 08:51:54;;;;;;;10.68;8.15;;;;;;;19.46;35.93;99801.75;233434;1170;114929;-67
2021/04/11 08:57:23;;;;;;;8.13;5.87;;;;;;;19.59;33.89;99800.23;232850;1175;116169;-68
2021/04/11 09:02:40;;;;;;;10.80;6.63;;;;;;;19.44;31.91;99806.64;232502;1174;115614;-70
2021/04/11 09:08:07;;;;;;;14.35;6.58;;;;;;;19.49;31.52;99793.87;233839;1174;115260;-68
2021/04/11 09:13:28;;;;;;;8.47;7.57;;;;;;;19.41;33.70;99782.89;232767;1174;115948;-66
2021/04/11 09:19:16;;;;;;;12.90;7.80;;;;;;;19.56;36.42;99782.73;232550;1174;115260;-70
2021/04/11 09:24:42;;;;;;;9.95;7.15;;;;;;;19.98;34.83;99778.27;234841;1174;115085;-69
2021/04/11 09:29:52;;;;;;;10.50;7.50;;;;;;;20.39;33.27;99770.30;235072;1174;115696;-64
2021/04/11 09:35:01;;;;;;;6.90;6.28;;;;;;;20.54;31.86;99763.78;234927;1173;115726;-64
2021/04/11 09:40:11;;;;;;;11.18;8.28;;;;;;;20.61;31.51;99754.16;235108;1174;115820;-65
2021/04/11 09:45:20;;;;;;;9.53;6.40;;;;;;;20.80;31.95;99748.63;234926;1174;115785;-65
2021/04/11 09:50:53;;;;;;;8.10;6.00;;;;;;;20.73;28.19;99751.77;234682;1174;115715;-65
2021/04/11 09:56:35;;;;;;;8.18;5.38;;;;;;;20.63;29.49;99748.45;233500;1174;116509;-66
2021/04/11 10:01:45;;;;;;;7.28;5.60;;;;;;;20.77;31.08;99758.20;233014;1174;116486;-65
2021/04/11 10:06:55;;;;;;;6.53;4.73;;;;;;;20.80;30.62;99749.44;233711;1174;115587;-66
2021/04/11 10:12:18;;;;;;;9.75;6.13;;;;;;;20.57;29.59;99744.23;233038;1170;116024;-69
2021/04/11 10:17:43;;;;;;;8.23;4.55;;;;;;;20.54;32.96;99742.12;233203;1174;117403;-69
2021/04/11 10:23:00;;;;;;;8.80;4.93;;;;;;;20.34;33.96;99744.08;233405;1174;115895;-68
2021/04/11 10:28:17;;;;;;;10.50;4.50;;;;;;;20.50;32.40;99737.30;232529;1176;117210;-69
2021/04/11 10:33:23;;;;;;;5.47;4.87;;;;;;;20.81;32.29;99729.37;232610;1174;116839;-65
2021/04/11 10:57:19;;;;;;;3.40;2.70;;;;;;;20.60;30.09;99711.94;238370;1167;102970;-68
2021/04/11 11:02:49;;;;;;;5.17;3.53;;;;;;;20.87;27.67;99713.81;233497;1167;115948;-67
2021/04/11 11:08:30;;;;;;;4.00;2.60;;;;;;;21.11;28.71;99711.66;233471;1173;115747;-66
2021/04/11 11:13:55;;;;;;;6.28;3.38;;;;;;;21.11;28.68;99711.66;233077;1173;115608;-65
2021/04/11 11:19:13;;;;;;;5.50;3.13;;;;;;;21.01;28.73;99706.48;234344;1173;115360;-67
2021/04/11 11:24:34;;;;;;;5.17;3.23;;;;;;;20.94;28.32;99708.80;234474;1174;114458;-68
2021/04/11 11:29:50;;;;;;;3.30;3.10;;;;;;;20.96;28.87;99692.23;234845;1174;114550;-65
2021/04/11 11:34:53;;;;;;;;;;;;;;;21.03;30.88;99679.08;235302;1174;114998;-66
2021/04/11 11:40:19;;;;;;;4.20;3.33;;;;;;;21.06;29.81;99681.98;235152;1173;102110;-66
2021/04/11 11:46:05;;;;;;;12.30;4.10;;;;;;;21.00;30.36;99680.48;234692;1174;114638;-66
2021/04/11 11:51:22;;;;;;;5.60;3.75;;;;;;;20.88;31.50;99669.36;232479;1174;115531;-64
2021/04/11 11:56:44;;;;;;;6.30;3.63;;;;;;;20.86;30.39;99668.86;233693;1170;115046;-65
2021/04/11 12:01:53;;;;;;;5.88;3.63;;;;;;;20.88;30.24;99666.65;232921;1174;115792;-66
2021/04/11 12:07:02;;;;;;;6.15;3.15;;;;;;;20.82;31.19;99652.41;232622;1174;114717;-67
2021/04/11 12:12:32;;;;;;;9.00;4.43;;;;;;;20.56;30.96;99647.84;233026;1174;114550;-65
2021/04/11 12:17:44;;;;;;;5.75;2.95;;;;;;;20.44;33.36;99651.88;232849;1174;115153;-68
2021/04/11 12:23:19;;;;;;;4.57;3.23;;;;;;;20.21;30.45;99639.30;233204;1173;115416;-67
2021/04/11 12:28:29;;;;;;;3.78;3.05;;;;;;;20.01;30.34;99632.38;233108;1174;115143;-67
2021/04/11 12:33:36;;;;;;;4.85;3.68;;;;;;;20.22;32.20;99638.20;232588;1174;115372;-66
2021/04/11 12:38:55;;;;;;;3.95;2.85;;;;;;;20.55;32.00;99632.69;233460;1174;114515;-66
2021/04/11 12:44:14;;;;;;;5.18;3.70;;;;;;;20.59;31.97;99637.20;233180;1173;115903;-67
2021/04/11 12:50:14;;;;;;;5.13;2.73;;;;;;;20.49;31.72;99630.09;232741;1174;117344;-66
2021/04/11 12:55:42;;;;;;;6.37;4.17;;;;;;;20.40;32.33;99621.09;233455;1174;115736;-67
2021/04/11 13:01:12;;;;;;;6.48;3.18;;;;;;;20.22;32.60;99619.25;232406;1174;117174;-68
2021/04/11 13:06:30;;;;;;;6.25;3.75;;;;;;;20.04;34.00;99617.45;233477;1174;117007;-66
2021/04/11 13:11:54;;;;;;;4.25;3.53;;;;;;;19.97;32.98;99619.74;232728;1174;116612;-66
2021/04/11 13:17:07;;;;;;;5.40;3.50;;;;;;;19.97;32.47;99628.66;234615;1173;115066;-67
2021/04/11 13:22:13;;;;;;;8.80;3.30;;;;;;;19.93;32.51;99624.14;235211;1173;114777;-66
2021/04/11 13:27:33;;;;;;;2.63;2.27;;;;;;;19.85;31.37;99614.84;235207;1174;115008;-67
2021/04/11 13:32:57;;;;;;;6.50;3.60;;;;;;;19.67;31.42;99605.68;235384;1173;115712;-69
2021/04/11 13:38:06;;;;;;;4.73;3.30;;;;;;;19.45;35.33;99608.20;235342;1174;115276;-65
2021/04/11 13:43:26;;;;;;;9.10;2.83;;;;;;;19.15;36.01;99607.61;235178;1174;115678;-66
2021/04/11 13:49:15;;;;;;;3.23;2.63;;;;;;;18.91;33.65;99600.70;234804;1173;116021;-65
2021/04/11 13:54:52;;;;;;;2.90;2.65;;;;;;;18.86;35.65;99600.77;234925;1173;116569;-66
2021/04/11 14:00:18;;;;;;;5.38;2.33;;;;;;;18.83;34.90;99596.75;233551;1174;116583;-66
2021/04/11 14:05:33;;;;;;;4.43;3.55;;;;;;;18.74;34.15;99595.79;232621;1173;116485;-67
2021/04/11 14:10:53;;;;;;;4.98;3.38;;;;;;;18.65;35.04;99586.77;233232;1174;114878;-65
2021/04/11 14:16:19;;;;;;;2.43;2.23;;;;;;;18.45;34.33;99599.39;232658;1174;117040;-63
2021/04/11 14:21:37;;;;;;;1.48;1.38;;;;;;;18.12;35.00;99611.93;233418;1173;115945;-68
2021/04/11 14:27:16;;;;;;;5.50;1.83;;;;;;;17.83;36.23;99603.89;232530;1167;115473;-69
2021/04/11 14:32:27;;;;;;;4.55;1.98;;;;;;;17.51;38.08;99612.52;232809;1174;116535;-68
2021/04/11 14:37:43;;;;;;;3.18;1.90;;;;;;;17.65;40.91;99611.91;233322;1173;116747;-69
2021/04/11 14:43:18;;;;;;;1.53;1.40;;;;;;;17.50;38.58;99620.88;233311;1174;115952;-69
2021/04/11 14:48:30;;;;;;;2.65;2.23;;;;;;;17.33;38.49;99623.20;233132;1174;117676;-69
2021/04/11 14:54:27;;;;;;;4.93;1.53;;;;;;;17.13;38.70;99624.13;232406;1174;116149;-69
2021/04/11 14:59:49;;;;;;;4.65;2.35;;;;;;;16.91;39.66;99631.83;232893;1173;115568;-69
2021/04/11 15:05:08;;;;;;;11.17;1.40;;;;;;;16.72;39.60;99631.68;232753;1173;118970;-69
2021/04/11 15:10:43;;;;;;;6.13;1.93;;;;;;;16.58;40.11;99636.02;232735;1174;116124;-69
2021/04/11 15:16:05;;;;;;;2.88;2.35;;;;;;;16.44;40.67;99628.55;233110;1174;116505;-69
2021/04/11 15:21:36;;;;;;;5.33;2.60;;;;;;;16.33;41.03;99629.66;233225;1172;115543;-69
2021/04/11 15:27:03;;;;;;;2.40;2.20;;;;;;;16.33;40.54;99635.05;234443;1173;116400;-69
2021/04/11 15:32:26;;;;;;;1.70;1.60;;;;;;;16.28;41.37;99632.38;235037;1173;115062;-68
2021/04/11 15:37:33;;;;;;;22.93;3.10;;;;;;;16.29;41.57;99628.60;235076;1173;117155;-66
2021/04/11 15:42:55;;;;;;;2.55;2.30;;;;;;;16.35;41.24;99627.51;235192;1174;116728;-71
2021/04/11 15:48:02;;;;;;;2.95;2.75;;;;;;;16.38;41.56;99629.66;234244;1174;115198;-70
2021/04/11 15:53:58;;;;;;;3.55;2.20;;;;;;;16.44;42.18;99625.87;235158;1173;115141;-70
2021/04/11 15:59:14;;;;;;;3.68;3.10;;;;;;;16.44;41.67;99619.68;233206;1173;115618;-72
2021/04/11 16:04:53;;;;;;;2.70;1.73;;;;;;;16.33;41.03;99635.05;232479;1174;114652;-71
2021/04/11 16:10:21;;;;;;;5.13;2.07;;;;;;;16.21;41.30;99629.16;233769;1168;115188;-68
2021/04/11 16:15:34;;;;;;;5.68;2.85;;;;;;;16.11;41.17;99638.08;233040;1173;115167;-70
2021/04/11 16:21:15;;;;;;;8.35;2.10;;;;;;;15.98;41.30;99637.84;233259;1172;115565;-69
2021/04/11 16:26:20;;;;;;;2.43;1.98;;;;;;;15.83;41.82;99641.38;232982;1173;115813;-72
2021/04/11 16:31:33;;;;;;;4.60;2.35;;;;;;;15.73;42.07;99641.38;232816;1173;116575;-69
2021/04/11 16:36:43;;;;;;;4.48;2.10;;;;;;;15.60;41.93;99642.72;232813;1173;115710;-69
2021/04/11 16:42:29;;;;;;;3.88;2.55;;;;;;;15.46;42.16;99637.07;232672;1172;116616;-70
2021/04/11 16:47:51;;;;;;;3.13;1.83;;;;;;;15.33;42.70;99647.53;233228;1174;115290;-69
2021/04/11 16:52:56;;;;;;;10.10;2.28;;;;;;;15.18;42.31;99648.34;233205;1173;116044;-67
2021/04/11 16:58:16;;;;;;;2.43;2.15;;;;;;;15.08;42.43;99659.05;232774;1173;116141;-68
2021/04/11 17:03:42;;;;;;;3.23;2.00;;;;;;;14.97;43.13;99649.39;233094;1174;114982;-70
2021/04/11 17:08:58;;;;;;;7.57;2.37;;;;;;;14.85;43.27;99660.34;233836;1174;115598;-69
2021/04/11 17:14:27;;;;;;;6.37;2.67;;;;;;;14.74;43.39;99664.06;234230;1174;114782;-69
2021/04/11 17:19:35;;;;;;;4.73;2.30;;;;;;;14.63;43.15;99665.12;233077;1173;115272;-69
2021/04/11 17:24:53;;;;;;;4.85;2.40;;;;;;;14.54;43.70;99675.53;232853;1173;115198;-68
2021/04/11 17:30:24;;;;;;;4.60;2.73;;;;;;;14.42;44.16;99678.42;234627;1173;115859;-69
2021/04/11 17:35:34;;;;;;;2.83;2.60;;;;;;;14.26;44.53;99684.76;234927;1173;114875;-69
2021/04/11 17:40:39;;;;;;;1.50;1.40;;;;;;;14.11;44.63;99690.02;235284;1173;114647;-68
2021/04/11 17:46:17;;;;;;;6.28;1.93;;;;;;;13.98;44.56;99699.33;235018;1173;135093;-68
2021/04/11 17:51:34;;;;;;;4.18;2.33;;;;;;;13.85;45.13;99704.31;234286;1174;115807;-67
2021/04/11 17:56:39;;;;;;;2.37;1.73;;;;;;;13.72;45.27;99709.06;235287;1174;115793;-67
2021/04/11 18:01:45;;;;;;;5.47;2.07;;;;;;;13.64;45.75;99712.20;232813;1167;116015;-68
2021/04/11 18:07:02;;;;;;;8.83;2.55;;;;;;;13.54;45.83;99722.00;232618;1173;114749;-69
2021/04/11 18:12:13;;;;;;;3.23;2.35;;;;;;;13.43;45.72;99724.61;233433;1172;115735;-70
2021/04/11 18:17:29;;;;;;;2.10;1.30;;;;;;;13.36;45.88;99725.87;233501;1174;114513;-70
2021/04/11 18:23:07;;;;;;;3.43;2.60;;;;;;;13.25;46.44;99726.81;232818;1173;115322;-69
2021/04/11 18:28:23;;;;;;;2.53;2.05;;;;;;;13.19;46.24;99738.52;233052;1173;115614;-67
2021/04/11 18:33:45;;;;;;;12.50;2.35;;;;;;;13.11;46.67;99734.42;232496;1173;204645;-66
2021/04/11 18:39:05;;;;;;;6.57;1.67;;;;;;;13.01;46.20;99736.97;233572;1173;115677;-67
2021/04/11 18:44:40;;;;;;;3.23;1.78;;;;;;;12.91;46.55;99734.98;233054;1174;117760;-66
2021/04/11 18:50:00;;;;;;;2.60;1.77;;;;;;;12.79;46.88;99737.80;232580;1174;115591;-70
2021/04/11 18:55:16;;;;;;;7.85;3.08;;;;;;;12.70;47.00;99741.14;233202;1168;114725;-69
2021/04/11 19:00:43;;;;;;;4.65;2.30;;;;;;;12.58;47.02;99745.79;232794;1173;216276;-70
2021/04/11 19:05:57;;;;;;;3.95;2.90;;;;;;;12.45;47.24;99742.44;233466;1173;114780;-69
2021/04/11 19:11:33;;;;;;;5.90;2.77;;;;;;;12.38;47.36;99743.66;233962;1174;114633;-68
2021/04/11 19:16:45;;;;;;;8.40;2.93;;;;;;;12.30;47.51;99746.75;234042;1174;114915;-69
2021/04/11 19:22:11;;;;;;;6.58;3.25;;;;;;;12.23;47.62;99746.13;233285;1174;114928;-68
2021/04/11 19:27:28;;;;;;;4.87;3.00;;;;;;;12.12;47.79;99745.97;234720;1167;117068;-68
2021/04/11 19:34:32;;;;;;;4.78;3.58;;;;;;;11.97;47.94;99751.06;239000;1168;103117;-69
2021/04/11 19:39:58;;;;;;;5.65;3.55;;;;;;;11.77;48.50;99756.09;234971;1174;116562;-68
2021/04/11 19:45:10;;;;;;;7.30;3.80;;;;;;;11.63;49.00;99746.72;235064;1174;116662;-68
2021/04/11 19:50:25;;;;;;;7.57;3.67;;;;;;;11.50;49.75;99752.38;233199;1174;115588;-68
2021/04/11 19:55:50;;;;;;;7.60;3.85;;;;;;;11.37;50.12;99756.95;233211;1174;115477;-67
2021/04/11 20:01:16;;;;;;;6.27;3.37;;;;;;;11.33;50.44;99757.67;232653;1176;116179;-69
2021/04/11 20:06:49;;;;;;;8.27;4.23;;;;;;;11.31;50.83;99752.56;233402;1174;115818;-68
2021/04/11 20:11:56;;;;;;;5.65;3.83;;;;;;;11.28;51.30;99757.60;232529;1177;115611;-70
2021/04/11 20:17:34;;;;;;;4.00;3.57;;;;;;;11.25;51.38;99753.55;232825;1174;117081;-71
2021/04/11 20:22:44;;;;;;;7.93;3.33;;;;;;;11.19;51.48;99754.49;233115;1174;114971;-68
2021/04/11 20:28:20;;;;;;;10.03;4.87;;;;;;;11.16;51.58;99754.97;232653;1174;116535;-73
2021/04/11 20:33:50;;;;;;;6.58;4.08;;;;;;;11.13;52.01;99750.10;233029;1176;116657;-70
2021/04/11 20:39:29;;;;;;;10.87;3.40;;;;;;;11.08;51.84;99742.81;232639;1175;115219;-71
2021/04/11 20:45:01;;;;;;;5.93;3.93;;;;;;;11.03;52.05;99749.90;232590;1174;115572;-69
2021/04/11 20:50:19;;;;;;;3.43;3.13;;;;;;;10.98;52.52;99752.48;232313;1176;115811;-70
2021/04/11 20:55:38;;;;;;;3.70;2.75;;;;;;;10.92;52.43;99756.09;232411;1176;116477;-70
2021/04/11 21:01:12;;;;;;;3.53;2.53;;;;;;;10.88;52.62;99747.75;232546;1175;116680;-67
2021/04/11 21:06:32;;;;;;;7.65;4.08;;;;;;;10.86;52.90;99749.84;233353;1176;115170;-70
2021/04/11 21:11:57;;;;;;;8.93;3.37;;;;;;;10.79;52.85;99749.97;232957;1176;115570;-68
2021/04/11 21:17:27;;;;;;;4.17;2.90;;;;;;;10.76;52.88;99753.11;233110;1176;115006;-69
2021/04/11 21:22:59;;;;;;;6.47;3.67;;;;;;;10.72;53.30;99751.95;234079;1175;115426;-70
2021/04/11 21:28:39;;;;;;;4.38;3.13;;;;;;;10.69;53.38;99754.30;232571;1175;115837;-70
2021/04/11 21:34:10;;;;;;;11.15;4.70;;;;;;;10.65;53.66;99755.81;233883;1176;114881;-69
2021/04/11 21:39:44;;;;;;;8.10;4.00;;;;;;;10.62;53.81;99756.28;235184;1176;115217;-71
2021/04/11 21:45:00;;;;;;;3.87;3.17;;;;;;;10.56;54.20;99759.88;234156;1176;115126;-72
2021/04/11 21:50:23;;;;;;;4.50;2.97;;;;;;;10.50;53.75;99756.28;233818;1176;114981;-68
2021/04/11 21:56:03;;;;;;;5.87;3.53;;;;;;;10.46;54.43;99752.45;234902;1175;115264;-70
2021/04/11 22:01:21;;;;;;;4.70;3.13;;;;;;;10.42;54.34;99754.78;234725;1176;114666;-69
2021/04/11 22:06:39;;;;;;;6.60;3.70;;;;;;;10.39;54.18;99755.27;233850;1176;116216;-68
2021/04/11 22:12:12;;;;;;;7.80;4.63;;;;;;;10.34;54.33;99757.81;233192;1175;115660;-69
2021/04/11 22:17:18;;;;;;;3.40;2.80;;;;;;;10.25;54.92;99759.20;232426;1177;115645;-68
2021/04/11 22:22:47;;;;;;;5.33;4.17;;;;;;;10.15;55.01;99769.58;232435;1176;116355;-69
2021/04/11 22:27:55;;;;;;;4.60;3.45;;;;;;;10.08;55.26;99774.23;232533;1177;116001;-70
2021/04/11 22:33:07;;;;;;;8.53;4.10;;;;;;;10.00;55.74;99775.38;232609;1176;115493;-68
2021/04/11 22:38:20;;;;;;;6.45;3.50;;;;;;;9.91;55.52;99774.08;232980;1176;116309;-71
2021/04/11 22:43:36;;;;;;;4.88;2.73;;;;;;;9.87;56.33;99774.77;232588;1176;115281;-69
2021/04/11 22:48:52;;;;;;;4.40;3.50;;;;;;;9.80;56.31;99769.53;233361;1176;115709;-69
2021/04/11 22:54:31;;;;;;;7.05;3.30;;;;;;;9.73;56.61;99764.34;233009;1176;115713;-68
2021/04/11 22:59:43;;;;;;;5.75;4.40;;;;;;;9.68;56.24;99769.52;232745;1175;115907;-68
2021/04/11 23:05:26;;;;;;;9.38;4.35;;;;;;;9.62;56.74;99754.46;233036;1176;115866;-68
2021/04/11 23:10:37;;;;;;;5.80;3.65;;;;;;;9.59;56.30;99757.58;233477;1171;115772;-67
2021/04/11 23:15:50;;;;;;;5.43;3.80;;;;;;;9.54;57.36;99752.12;233185;1176;116046;-68
2021/04/11 23:21:05;;;;;;;6.97;4.00;;;;;;;9.49;57.54;99765.28;233163;1176;117399;-68
2021/04/11 23:26:14;;;;;;;5.65;4.85;;;;;;;9.39;57.59;99755.21;233870;1174;115140;-68
2021/04/11 23:31:29;;;;;;;5.80;4.98;;;;;;;9.34;57.67;99751.60;232593;1175;115196;-70
2021/04/11 23:36:55;;;;;;;4.43;3.97;;;;;;;9.23;58.08;99750.52;234549;1176;115510;-68
2021/04/11 23:42:13;;;;;;;6.75;6.00;;;;;;;9.16;57.95;99746.34;234943;1176;114717;-69
2021/04/11 23:47:25;;;;;;;4.73;4.13;;;;;;;9.04;58.67;99751.59;234955;1175;114094;-68
2021/04/11 23:53:01;;;;;;;4.70;4.30;;;;;;;8.88;58.77;99753.00;235110;1176;120354;-68
2021/04/11 23:58:26;;;;;;;8.20;5.43;;;;;;;8.83;59.21;99750.23;234699;1176;114431;-68
